createdAt,value
2022-11-16T00:01:59.659Z,10.69
2022-11-16T00:04:19.123Z,10.71
2022-11-16T00:06:39.142Z,10.70
2022-11-16T00:08:57.157Z,10.71
2022-11-16T00:11:14.137Z,10.70
2022-11-16T00:13:35.810Z,10.70
2022-11-16T00:15:52.899Z,10.71
2022-11-16T00:18:10.157Z,10.70
2022-11-16T00:20:27.151Z,10.72
2022-11-16T00:22:44.565Z,10.72
2022-11-16T00:25:01.830Z,10.73
2022-11-16T00:27:22.922Z,10.72
2022-11-16T00:29:41.696Z,10.72
2022-11-16T00:31:59.132Z,10.72
2022-11-16T00:34:16.507Z,10.71
2022-11-16T00:36:33.770Z,10.75
2022-11-16T00:38:50.925Z,10.73
2022-11-16T00:41:09.275Z,10.72
2022-11-16T00:43:26.435Z,10.73
2022-11-16T00:45:43.525Z,10.72
2022-11-16T00:48:00.916Z,10.72
2022-11-16T00:50:18.380Z,10.71
2022-11-16T00:52:35.448Z,10.71
2022-11-16T00:54:52.593Z,10.73
2022-11-16T00:57:10.944Z,10.74
2022-11-16T00:59:28.369Z,10.75
2022-11-16T01:01:45.397Z,10.72
2022-11-16T01:04:02.836Z,10.71
2022-11-16T01:06:20.326Z,10.71
2022-11-16T01:08:37.479Z,10.71
2022-11-16T01:10:54.369Z,10.69
2022-11-16T01:13:11.471Z,10.68
2022-11-16T01:15:28.357Z,10.70
2022-11-16T01:17:45.844Z,10.76
2022-11-16T01:20:02.842Z,10.72
2022-11-16T01:22:19.852Z,10.72
2022-11-16T01:24:36.904Z,10.72
2022-11-16T01:26:54.957Z,10.74
2022-11-16T01:29:12.279Z,10.72
2022-11-16T01:31:29.304Z,10.71
2022-11-16T01:33:47.618Z,10.70
2022-11-16T01:36:04.691Z,10.71
2022-11-16T01:38:29.704Z,10.70
2022-11-16T01:40:48.238Z,10.68
2022-11-16T01:43:06.460Z,10.68
2022-11-16T01:45:24.797Z,10.71
2022-11-16T01:47:42.112Z,10.71
2022-11-16T01:49:59.382Z,10.69
2022-11-16T01:52:16.777Z,10.67
2022-11-16T01:54:34.054Z,10.66
2022-11-16T01:56:51.535Z,10.66
2022-11-16T01:59:08.787Z,10.64
2022-11-16T02:01:26.203Z,10.64
2022-11-16T02:03:43.317Z,10.64
2022-11-16T02:06:00.370Z,10.60
2022-11-16T02:08:17.344Z,10.58
2022-11-16T02:10:34.404Z,10.57
2022-11-16T02:12:51.477Z,10.52
2022-11-16T02:15:08.416Z,10.50
2022-11-16T02:17:25.430Z,10.48
2022-11-16T02:19:42.730Z,10.49
2022-11-16T02:22:00.712Z,10.47
2022-11-16T02:24:18.738Z,10.45
2022-11-16T02:26:36.639Z,10.46
2022-11-16T02:28:53.844Z,10.45
2022-11-16T02:31:11.784Z,10.46
2022-11-16T02:33:29.139Z,10.45
2022-11-16T02:35:47.995Z,10.45
2022-11-16T02:38:04.998Z,10.44
2022-11-16T02:40:23.269Z,10.46
2022-11-16T02:42:40.293Z,10.46
2022-11-16T02:44:58.129Z,10.46
2022-11-16T02:47:17.316Z,10.45
2022-11-16T02:49:34.557Z,10.43
2022-11-16T02:51:51.633Z,10.43
2022-11-16T02:54:09.929Z,10.43
2022-11-16T02:56:26.988Z,10.40
2022-11-16T02:58:44.269Z,10.39
2022-11-16T03:01:01.656Z,10.37
2022-11-16T03:03:18.729Z,10.36
2022-11-16T03:05:35.646Z,10.34
2022-11-16T03:07:53.012Z,10.30
2022-11-16T03:10:10.067Z,10.29
2022-11-16T03:12:27.369Z,10.28
2022-11-16T03:14:45.613Z,10.30
2022-11-16T03:17:02.464Z,10.30
2022-11-16T03:19:20.779Z,10.31
2022-11-16T03:21:37.994Z,10.31
2022-11-16T03:23:55.772Z,10.28
2022-11-16T03:26:12.768Z,10.29
2022-11-16T03:28:29.706Z,10.27
2022-11-16T03:30:47.047Z,10.26
2022-11-16T03:33:04.359Z,10.31
2022-11-16T03:35:21.351Z,10.35
2022-11-16T03:37:38.641Z,10.37
2022-11-16T03:39:55.581Z,10.37
2022-11-16T03:42:12.537Z,10.38
2022-11-16T03:44:29.850Z,10.41
2022-11-16T03:46:47.789Z,10.40
2022-11-16T03:49:04.724Z,10.42
2022-11-16T03:51:21.964Z,10.44
2022-11-16T03:53:40.199Z,10.44
2022-11-16T03:55:57.456Z,10.44
2022-11-16T03:58:14.361Z,10.45
2022-11-16T04:00:32.479Z,10.46
2022-11-16T04:02:50.576Z,10.46
2022-11-16T04:05:07.863Z,10.47
2022-11-16T04:07:26.809Z,10.43
2022-11-16T04:09:44.122Z,10.41
2022-11-16T04:12:01.415Z,10.42
2022-11-16T04:14:18.748Z,10.39
2022-11-16T04:16:35.990Z,10.36
2022-11-16T04:18:53.939Z,10.33
2022-11-16T04:21:11.006Z,10.32
2022-11-16T04:23:28.090Z,10.29
2022-11-16T04:25:45.407Z,10.27
2022-11-16T04:28:02.655Z,10.25
2022-11-16T04:30:20.004Z,10.26
2022-11-16T04:32:38.022Z,10.25
2022-11-16T04:34:55.267Z,10.24
2022-11-16T04:37:12.319Z,10.23
2022-11-16T04:39:29.343Z,10.23
2022-11-16T04:41:46.547Z,10.24
2022-11-16T04:44:03.422Z,10.23
2022-11-16T04:46:20.442Z,10.25
2022-11-16T04:48:38.442Z,10.26
2022-11-16T04:50:56.848Z,10.25
2022-11-16T04:53:17.290Z,10.23
2022-11-16T04:55:37.617Z,10.25
2022-11-16T04:57:54.571Z,10.26
2022-11-16T05:00:11.847Z,10.24
2022-11-16T05:02:28.783Z,10.23
2022-11-16T05:04:46.103Z,10.21
2022-11-16T05:07:03.346Z,10.14
2022-11-16T05:09:20.676Z,10.09
2022-11-16T05:11:37.891Z,9.88
2022-11-16T05:13:57.260Z,9.87
2022-11-16T05:16:14.569Z,9.75
2022-11-16T05:18:32.183Z,9.60
2022-11-16T05:20:49.735Z,9.59
2022-11-16T05:23:06.810Z,9.44
2022-11-16T05:25:24.052Z,9.33
2022-11-16T05:27:41.062Z,9.28
2022-11-16T05:29:57.896Z,9.27
2022-11-16T05:32:14.922Z,9.27
2022-11-16T05:34:32.888Z,9.27
2022-11-16T05:36:49.904Z,9.29
2022-11-16T05:39:07.220Z,9.33
2022-11-16T05:41:24.204Z,9.34
2022-11-16T05:43:41.897Z,9.34
2022-11-16T05:46:00.134Z,9.33
2022-11-16T05:48:17.173Z,9.31
2022-11-16T05:50:36.335Z,9.25
2022-11-16T05:52:56.956Z,9.18
2022-11-16T05:55:14.187Z,9.05
2022-11-16T05:57:32.177Z,9.01
2022-11-16T05:59:49.144Z,8.93
2022-11-16T06:02:06.144Z,8.91
2022-11-16T06:04:24.988Z,8.85
2022-11-16T06:06:42.064Z,8.80
2022-11-16T06:08:59.944Z,8.77
2022-11-16T06:11:18.198Z,8.75
2022-11-16T06:13:37.920Z,8.75
2022-11-16T06:15:58.849Z,8.70
2022-11-16T06:18:16.096Z,8.63
2022-11-16T06:20:33.712Z,8.60
2022-11-16T06:22:51.011Z,8.56
2022-11-16T06:25:07.983Z,8.51
2022-11-16T06:27:25.015Z,8.44
2022-11-16T06:29:42.065Z,8.39
2022-11-16T06:32:00.440Z,8.36
2022-11-16T06:34:17.721Z,8.34
2022-11-16T06:36:35.005Z,8.27
2022-11-16T06:38:52.997Z,8.24
2022-11-16T06:41:10.278Z,8.21
2022-11-16T06:43:27.544Z,8.18
2022-11-16T06:45:44.802Z,8.15
2022-11-16T06:48:02.071Z,8.12
2022-11-16T06:50:20.321Z,8.18
2022-11-16T06:52:37.211Z,8.14
2022-11-16T06:54:55.163Z,8.12
2022-11-16T06:57:12.240Z,8.10
2022-11-16T06:59:30.308Z,8.06
2022-11-16T07:01:48.139Z,8.05
2022-11-16T07:04:06.087Z,8.05
2022-11-16T07:06:23.347Z,8.00
2022-11-16T07:08:40.465Z,7.97
2022-11-16T07:11:02.970Z,7.96
2022-11-16T07:13:21.345Z,7.95
2022-11-16T07:15:38.668Z,7.99
2022-11-16T07:17:55.700Z,7.95
2022-11-16T07:20:12.792Z,7.93
2022-11-16T07:22:30.035Z,7.89
2022-11-16T07:24:47.545Z,7.87
2022-11-16T07:27:04.865Z,7.89
2022-11-16T07:29:21.938Z,8.00
2022-11-16T07:31:40.209Z,7.90
2022-11-16T07:33:57.558Z,7.83
2022-11-16T07:36:14.796Z,7.83
2022-11-16T07:38:32.214Z,7.83
2022-11-16T07:40:49.578Z,7.83
2022-11-16T07:43:06.924Z,7.80
2022-11-16T07:45:24.029Z,7.79
2022-11-16T07:47:40.912Z,7.81
2022-11-16T07:49:57.823Z,7.82
2022-11-16T07:52:15.061Z,7.76
2022-11-16T07:54:32.311Z,7.71
2022-11-16T07:56:49.443Z,7.72
2022-11-16T07:59:06.508Z,7.68
2022-11-16T08:01:23.877Z,7.65
2022-11-16T08:03:41.232Z,7.65
2022-11-16T08:05:59.457Z,7.64
2022-11-16T08:08:16.694Z,7.64
2022-11-16T08:10:33.844Z,7.67
2022-11-16T08:12:51.869Z,7.68
2022-11-16T08:15:09.121Z,7.72
2022-11-16T08:17:26.148Z,7.75
2022-11-16T08:19:44.394Z,7.78
2022-11-16T08:22:01.434Z,7.78
2022-11-16T08:24:18.474Z,7.83
2022-11-16T08:26:35.818Z,7.86
2022-11-16T08:28:52.950Z,7.91
2022-11-16T08:31:09.991Z,7.97
2022-11-16T08:33:27.274Z,8.09
2022-11-16T08:35:49.383Z,8.20
2022-11-16T08:38:06.406Z,8.22
2022-11-16T08:40:23.675Z,8.25
2022-11-16T08:42:43.677Z,8.31
2022-11-16T08:45:01.143Z,8.39
2022-11-16T08:47:18.444Z,8.48
2022-11-16T08:49:35.413Z,8.57
2022-11-16T08:51:52.423Z,8.57
2022-11-16T08:54:10.495Z,8.59
2022-11-16T08:56:27.655Z,8.67
2022-11-16T08:58:44.720Z,8.65
2022-11-16T09:01:01.796Z,8.57
2022-11-16T09:03:20.095Z,8.61
2022-11-16T09:05:37.357Z,8.57
2022-11-16T09:07:54.379Z,8.67
2022-11-16T09:10:12.653Z,8.68
2022-11-16T09:12:29.917Z,8.72
2022-11-16T09:14:46.939Z,8.78
2022-11-16T09:17:05.078Z,8.83
2022-11-16T09:19:22.175Z,8.86
2022-11-16T09:21:39.166Z,8.89
2022-11-16T09:23:56.442Z,8.95
2022-11-16T09:26:13.399Z,8.95
2022-11-16T09:28:30.345Z,9.02
2022-11-16T09:30:47.395Z,9.18
2022-11-16T09:33:05.344Z,9.41
2022-11-16T09:35:22.631Z,9.69
2022-11-16T09:37:39.900Z,9.85
2022-11-16T09:39:56.941Z,10.26
2022-11-16T09:42:14.034Z,10.36
2022-11-16T09:44:31.025Z,10.39
2022-11-16T09:46:48.328Z,10.53
2022-11-16T09:49:13.964Z,10.78
2022-11-16T09:51:34.330Z,11.00
2022-11-16T09:53:51.456Z,11.12
2022-11-16T09:56:08.722Z,11.16
2022-11-16T09:58:25.987Z,11.20
2022-11-16T10:00:43.316Z,11.13
2022-11-16T10:03:00.557Z,11.15
2022-11-16T10:05:17.857Z,11.21
2022-11-16T10:07:35.184Z,11.25
2022-11-16T10:09:52.235Z,11.32
2022-11-16T10:12:09.287Z,11.36
2022-11-16T10:14:26.562Z,11.49
2022-11-16T10:16:44.706Z,11.66
2022-11-16T10:19:01.708Z,11.66
2022-11-16T10:21:18.996Z,11.65
2022-11-16T10:23:37.171Z,11.72
2022-11-16T10:25:54.378Z,11.78
2022-11-16T10:28:11.609Z,11.86
2022-11-16T10:30:28.868Z,11.96
2022-11-16T10:32:46.148Z,11.94
2022-11-16T10:35:03.121Z,11.99
2022-11-16T10:37:21.157Z,12.01
2022-11-16T10:39:38.166Z,11.77
2022-11-16T10:41:55.257Z,11.76
2022-11-16T10:44:12.465Z,11.66
2022-11-16T10:46:29.704Z,11.61
2022-11-16T10:48:47.013Z,11.60
2022-11-16T10:51:05.235Z,11.59
2022-11-16T10:53:22.244Z,11.60
2022-11-16T10:55:39.434Z,11.67
2022-11-16T10:57:56.626Z,11.80
2022-11-16T11:00:18.317Z,11.97
2022-11-16T11:02:38.269Z,12.17
2022-11-16T11:04:55.309Z,12.17
2022-11-16T11:07:12.279Z,12.18
2022-11-16T11:09:30.490Z,12.05
2022-11-16T11:11:47.396Z,12.06
2022-11-16T11:14:05.329Z,12.09
2022-11-16T11:16:22.367Z,12.11
2022-11-16T11:18:40.579Z,12.04
2022-11-16T11:20:57.557Z,12.02
2022-11-16T11:23:14.804Z,11.96
2022-11-16T11:25:31.840Z,12.06
2022-11-16T11:27:48.752Z,12.05
2022-11-16T11:30:05.989Z,12.25
2022-11-16T11:32:24.657Z,12.31
2022-11-16T11:34:41.829Z,12.41
2022-11-16T11:37:00.122Z,12.49
2022-11-16T11:39:17.217Z,12.57
2022-11-16T11:41:34.113Z,12.60
2022-11-16T11:43:51.482Z,12.72
2022-11-16T11:46:09.144Z,13.02
2022-11-16T11:48:27.122Z,12.94
2022-11-16T11:50:44.051Z,12.91
2022-11-16T11:53:01.271Z,12.94
2022-11-16T11:55:18.304Z,12.83
2022-11-16T11:57:35.268Z,12.62
2022-11-16T11:59:52.534Z,12.56
2022-11-16T12:02:09.760Z,12.47
2022-11-16T12:04:26.832Z,12.46
2022-11-16T12:06:44.516Z,12.46
2022-11-16T12:09:01.551Z,12.52
2022-11-16T12:11:19.560Z,12.57
2022-11-16T12:13:36.821Z,12.55
2022-11-16T12:15:54.475Z,12.65
2022-11-16T12:18:12.455Z,12.68
2022-11-16T12:20:29.512Z,12.62
2022-11-16T12:22:46.703Z,12.50
2022-11-16T12:25:03.708Z,12.52
2022-11-16T12:27:20.718Z,12.44
2022-11-16T12:29:37.751Z,12.36
2022-11-16T12:31:56.761Z,12.27
2022-11-16T12:34:13.769Z,12.39
2022-11-16T12:36:30.760Z,12.49
2022-11-16T12:38:47.799Z,12.39
2022-11-16T12:41:05.032Z,12.41
2022-11-16T12:43:23.268Z,12.37
2022-11-16T12:45:40.204Z,12.24
2022-11-16T12:47:57.242Z,12.25
2022-11-16T12:50:17.903Z,12.34
2022-11-16T12:52:35.137Z,12.38
2022-11-16T12:55:24.021Z,12.24
2022-11-16T12:57:29.342Z,12.27
2022-11-16T12:59:46.337Z,12.25
2022-11-16T13:02:04.679Z,12.21
2022-11-16T13:04:22.881Z,12.30
2022-11-16T13:06:40.151Z,12.28
2022-11-16T13:08:57.135Z,12.27
2022-11-16T13:11:14.343Z,12.28
2022-11-16T13:13:38.844Z,12.16
2022-11-16T13:15:55.805Z,12.11
2022-11-16T13:18:12.854Z,12.05
2022-11-16T13:20:29.874Z,12.01
2022-11-16T13:22:47.103Z,11.98
2022-11-16T13:25:04.076Z,11.93
2022-11-16T13:27:21.401Z,11.90
2022-11-16T13:29:38.307Z,11.85
2022-11-16T13:31:55.286Z,11.83
2022-11-16T13:34:12.584Z,11.83
2022-11-16T13:36:29.579Z,11.85
2022-11-16T13:38:47.805Z,11.86
2022-11-16T13:41:04.711Z,11.90
2022-11-16T13:43:23.045Z,11.94
2022-11-16T13:45:40.089Z,11.96
2022-11-16T13:47:57.300Z,11.97
2022-11-16T13:50:14.543Z,11.95
2022-11-16T13:52:55.378Z,11.86
2022-11-16T13:55:08.739Z,11.94
2022-11-16T13:57:25.749Z,11.89
2022-11-16T13:59:42.580Z,11.86
2022-11-16T14:01:59.655Z,11.87
2022-11-16T14:04:16.567Z,11.85
2022-11-16T14:06:33.538Z,11.76
2022-11-16T14:08:50.603Z,11.69
2022-11-16T14:11:08.643Z,11.68
2022-11-16T14:13:25.646Z,11.68
2022-11-16T14:15:43.650Z,11.69
2022-11-16T14:18:00.632Z,11.71
2022-11-16T14:20:22.160Z,11.70
2022-11-16T14:22:39.641Z,11.70
2022-11-16T14:24:56.973Z,11.68
2022-11-16T14:27:14.325Z,11.74
2022-11-16T14:29:31.360Z,11.74
2022-11-16T14:31:48.497Z,11.80
2022-11-16T14:34:05.806Z,11.80
2022-11-16T14:36:23.173Z,11.79
2022-11-16T14:38:41.469Z,11.78
2022-11-16T14:40:59.846Z,11.77
2022-11-16T14:43:17.698Z,11.78
2022-11-16T14:45:34.817Z,11.72
2022-11-16T14:47:52.860Z,11.69
2022-11-16T14:50:09.960Z,11.63
2022-11-16T14:52:26.837Z,11.53
2022-11-16T14:54:43.751Z,11.44
2022-11-16T14:57:01.693Z,11.39
2022-11-16T14:59:18.763Z,11.33
2022-11-16T15:01:36.143Z,11.31
2022-11-16T15:03:54.232Z,11.30
2022-11-16T15:06:11.324Z,11.30
2022-11-16T15:08:28.373Z,11.31
2022-11-16T15:10:49.501Z,11.25
2022-11-16T15:13:09.342Z,11.17
2022-11-16T15:15:26.361Z,11.11
2022-11-16T15:17:43.448Z,11.06
2022-11-16T15:20:00.698Z,10.98
2022-11-16T15:22:18.159Z,10.87
2022-11-16T15:24:35.258Z,10.77
2022-11-16T15:26:52.560Z,10.73
2022-11-16T15:29:09.821Z,10.62
2022-11-16T15:31:28.561Z,10.51
2022-11-16T15:33:45.560Z,10.46
2022-11-16T15:36:02.596Z,10.42
2022-11-16T15:38:19.572Z,10.38
2022-11-16T15:40:36.829Z,10.29
2022-11-16T15:42:53.924Z,10.22
2022-11-16T15:45:15.662Z,10.11
2022-11-16T15:47:33.233Z,10.07
2022-11-16T15:49:50.249Z,9.98
2022-11-16T15:52:07.239Z,9.91
2022-11-16T15:54:24.373Z,9.86
2022-11-16T15:56:41.399Z,9.88
2022-11-16T15:58:58.360Z,9.83
2022-11-16T16:01:15.642Z,9.80
2022-11-16T16:03:33.374Z,9.78
2022-11-16T16:05:50.516Z,9.79
2022-11-16T16:08:07.770Z,9.81
2022-11-16T16:10:25.803Z,9.81
2022-11-16T16:12:43.042Z,9.82
2022-11-16T16:15:00.027Z,9.76
2022-11-16T16:17:16.981Z,9.73
2022-11-16T16:19:34.262Z,9.68
2022-11-16T16:21:51.250Z,9.68
2022-11-16T16:24:08.443Z,9.67
2022-11-16T16:26:25.484Z,9.67
2022-11-16T16:28:42.477Z,9.66
2022-11-16T16:30:59.453Z,9.66
2022-11-16T16:33:16.398Z,9.65
2022-11-16T16:35:33.317Z,9.62
2022-11-16T16:37:50.351Z,9.59
2022-11-16T16:40:07.544Z,9.57
2022-11-16T16:42:24.552Z,9.49
2022-11-16T16:44:42.816Z,9.47
2022-11-16T16:46:59.834Z,9.39
2022-11-16T16:49:17.039Z,9.34
2022-11-16T16:51:34.068Z,9.28
2022-11-16T16:53:52.092Z,9.20
2022-11-16T16:56:09.076Z,9.12
2022-11-16T16:58:26.076Z,9.08
2022-11-16T17:00:44.499Z,9.04
2022-11-16T17:03:01.493Z,9.04
2022-11-16T17:05:18.742Z,9.04
2022-11-16T17:07:36.081Z,9.03
2022-11-16T17:09:53.184Z,9.08
2022-11-16T17:12:10.227Z,9.06
2022-11-16T17:14:27.466Z,9.05
2022-11-16T17:16:44.489Z,9.04
2022-11-16T17:19:01.736Z,9.09
2022-11-16T17:21:18.966Z,9.10
2022-11-16T17:23:36.454Z,9.11
2022-11-16T17:25:54.018Z,9.11
2022-11-16T17:28:11.328Z,9.13
2022-11-16T17:30:28.681Z,9.21
2022-11-16T17:32:45.870Z,9.20
2022-11-16T17:35:03.132Z,9.24
2022-11-16T17:37:20.171Z,9.20
2022-11-16T17:39:37.937Z,9.17
2022-11-16T17:41:55.836Z,9.18
2022-11-16T17:44:17.173Z,9.18
2022-11-16T17:46:37.241Z,9.20
2022-11-16T17:48:54.280Z,9.19
2022-11-16T17:51:11.515Z,9.22
2022-11-16T17:53:32.623Z,9.21
2022-11-16T17:55:50.119Z,9.22
2022-11-16T17:58:07.036Z,9.28
2022-11-16T18:00:25.211Z,9.28
2022-11-16T18:02:42.475Z,9.28
2022-11-16T18:04:59.405Z,9.29
2022-11-16T18:07:16.808Z,9.32
2022-11-16T18:09:34.147Z,9.29
2022-11-16T18:11:51.071Z,9.36
2022-11-16T18:14:07.941Z,9.33
2022-11-16T18:16:24.871Z,9.31
2022-11-16T18:18:42.199Z,9.30
2022-11-16T18:20:59.180Z,9.32
2022-11-16T18:23:17.189Z,9.34
2022-11-16T18:25:34.056Z,9.35
2022-11-16T18:27:51.116Z,9.36
2022-11-16T18:30:08.123Z,9.34
2022-11-16T18:32:24.999Z,9.32
2022-11-16T18:34:41.928Z,9.31
2022-11-16T18:36:59.201Z,9.32
2022-11-16T18:39:16.419Z,9.30
2022-11-16T18:41:33.401Z,9.27
2022-11-16T18:43:50.762Z,9.24
2022-11-16T18:46:07.806Z,9.23
2022-11-16T18:48:25.127Z,9.22
2022-11-16T18:50:42.079Z,9.22
2022-11-16T18:52:59.070Z,9.21
2022-11-16T18:55:16.321Z,9.23
2022-11-16T18:57:34.353Z,9.27
2022-11-16T18:59:51.391Z,9.25
2022-11-16T19:02:08.371Z,9.22
2022-11-16T19:04:25.567Z,9.21
2022-11-16T19:06:42.810Z,9.21
2022-11-16T19:08:59.878Z,9.19
2022-11-16T19:11:17.182Z,9.18
2022-11-16T19:13:35.631Z,9.18
2022-11-16T19:15:52.868Z,9.17
2022-11-16T19:18:21.324Z,9.19
2022-11-16T19:20:39.923Z,9.19
2022-11-16T19:22:56.824Z,9.18
2022-11-16T19:25:14.819Z,9.16
2022-11-16T19:27:31.855Z,9.16
2022-11-16T19:29:50.067Z,9.13
2022-11-16T19:32:07.319Z,9.11
2022-11-16T19:34:27.812Z,9.11
2022-11-16T19:36:49.312Z,9.16
2022-11-16T19:39:06.544Z,9.15
2022-11-16T19:41:23.555Z,9.12
2022-11-16T19:43:40.795Z,9.11
2022-11-16T19:45:58.826Z,9.14
2022-11-16T19:48:16.077Z,9.12
2022-11-16T19:50:34.040Z,9.11
2022-11-16T19:52:51.354Z,9.12
2022-11-16T19:55:08.272Z,9.11
2022-11-16T19:57:25.571Z,9.12
2022-11-16T19:59:43.550Z,9.10
2022-11-16T20:02:00.598Z,9.07
2022-11-16T20:04:17.432Z,9.04
2022-11-16T20:06:34.455Z,9.01
2022-11-16T20:08:51.632Z,9.00
2022-11-16T20:11:08.937Z,9.01
2022-11-16T20:13:26.913Z,9.01
2022-11-16T20:15:43.919Z,9.00
2022-11-16T20:18:01.289Z,9.01
2022-11-16T20:20:18.206Z,9.02
2022-11-16T20:22:35.166Z,9.03
2022-11-16T20:24:52.153Z,9.04
2022-11-16T20:27:09.389Z,9.06
2022-11-16T20:29:26.646Z,9.08
2022-11-16T20:31:43.641Z,9.07
2022-11-16T20:34:00.713Z,9.11
2022-11-16T20:36:17.936Z,9.11
2022-11-16T20:38:35.032Z,9.12
2022-11-16T20:40:52.287Z,9.11
2022-11-16T20:43:09.326Z,9.11
2022-11-16T20:45:26.279Z,9.14
2022-11-16T20:47:44.240Z,9.14
2022-11-16T20:50:01.541Z,9.11
2022-11-16T20:52:18.531Z,9.11
2022-11-16T20:54:35.732Z,9.10
2022-11-16T20:56:52.560Z,9.10
2022-11-16T20:59:10.837Z,9.10
2022-11-16T21:01:27.857Z,9.11
2022-11-16T21:03:45.155Z,9.12
2022-11-16T21:06:03.431Z,9.10
2022-11-16T21:08:20.624Z,9.08
2022-11-16T21:10:37.642Z,9.08
2022-11-16T21:12:54.939Z,9.07
2022-11-16T21:15:11.876Z,9.06
2022-11-16T21:17:28.874Z,9.06
2022-11-16T21:20:05.461Z,9.06
2022-11-16T21:22:22.766Z,9.06
2022-11-16T21:24:39.806Z,9.07
2022-11-16T21:26:57.991Z,9.06
2022-11-16T21:29:15.297Z,9.07
2022-11-16T21:31:32.331Z,9.08
2022-11-16T21:33:49.550Z,9.06
2022-11-16T21:36:06.611Z,9.08
2022-11-16T21:38:23.553Z,9.08
2022-11-16T21:40:40.585Z,9.09
2022-11-16T21:42:57.623Z,9.10
2022-11-16T21:45:14.606Z,9.10
2022-11-16T21:47:31.872Z,9.12
2022-11-16T21:50:24.397Z,9.14
2022-11-16T21:52:26.808Z,9.15
2022-11-16T21:54:44.766Z,9.14
2022-11-16T21:57:02.062Z,9.13
2022-11-16T21:59:19.062Z,9.11
2022-11-16T22:01:36.030Z,9.12
2022-11-16T22:03:54.084Z,9.11
2022-11-16T22:06:11.855Z,9.10
2022-11-16T22:08:29.241Z,9.09
2022-11-16T22:10:46.519Z,9.10
2022-11-16T22:13:04.773Z,9.10
2022-11-16T22:15:21.732Z,9.10
2022-11-16T22:17:38.683Z,9.11
2022-11-16T22:19:56.877Z,9.13
2022-11-16T22:22:14.101Z,9.12
2022-11-16T22:24:31.342Z,9.13
2022-11-16T22:26:48.829Z,9.12
2022-11-16T22:29:06.239Z,9.12
2022-11-16T22:31:23.105Z,9.12
2022-11-16T22:33:40.099Z,9.11
2022-11-16T22:35:57.373Z,9.13
2022-11-16T22:38:14.653Z,9.13
2022-11-16T22:40:31.880Z,9.12
2022-11-16T22:42:48.863Z,9.11
2022-11-16T22:45:05.829Z,9.11
2022-11-16T22:47:23.428Z,9.14
2022-11-16T22:49:40.686Z,9.14
2022-11-16T22:51:57.933Z,9.13
2022-11-16T22:54:14.822Z,9.12
2022-11-16T22:56:32.098Z,9.14
2022-11-16T22:58:49.033Z,9.11
2022-11-16T23:01:05.986Z,9.11
2022-11-16T23:03:23.067Z,9.09
2022-11-16T23:05:40.059Z,9.09
2022-11-16T23:07:57.088Z,9.09
2022-11-16T23:10:14.967Z,9.11
2022-11-16T23:12:31.915Z,9.10
2022-11-16T23:14:49.922Z,9.10
2022-11-16T23:35:41.806Z,9.16
2022-11-16T23:37:58.829Z,9.17
2022-11-16T23:40:18.825Z,9.19
2022-11-16T23:42:35.938Z,9.21
2022-11-16T23:44:53.003Z,9.22
2022-11-16T23:47:10.260Z,9.23
2022-11-16T23:49:27.539Z,9.22
2022-11-16T23:51:44.904Z,9.24
2022-11-16T23:54:01.979Z,9.24
2022-11-16T23:56:19.105Z,9.26
2022-11-16T23:58:36.198Z,9.28
